createdAt,value
2019-01-03T00:17:09.184Z,53.10
2019-01-03T00:20:09.607Z,46.70
2019-01-03T00:23:09.125Z,46.00
2019-01-03T00:26:08.759Z,46.90
2019-01-03T00:29:08.450Z,47.70
2019-01-03T00:32:10.851Z,47.90
2019-01-03T00:35:10.557Z,47.10
2019-01-03T00:38:09.414Z,47.00
2019-01-03T00:41:15.366Z,44.50
2019-01-03T00:47:30.939Z,38.90
2019-01-03T00:50:33.861Z,39.10
2019-01-03T00:53:34.541Z,39.00
2019-01-03T00:56:34.725Z,38.50
2019-01-03T00:59:34.295Z,38.60
2019-01-03T01:02:41.605Z,39.80
2019-01-03T01:05:44.874Z,40.30
2019-01-03T01:08:34.713Z,40.90
2019-01-03T01:11:37.319Z,40.70
2019-01-03T01:14:36.796Z,40.10
2019-01-03T01:17:40.031Z,39.50
2019-01-03T01:24:00.989Z,41.30
2019-01-03T01:27:01.144Z,40.40
2019-01-03T01:30:01.483Z,39.60
2019-01-03T01:33:03.243Z,40.10
2019-01-03T01:36:03.415Z,39.60
2019-01-03T01:39:02.159Z,38.50
2019-01-03T01:42:02.370Z,37.80
2019-01-03T01:45:08.558Z,38.30
2019-01-03T01:48:10.853Z,38.40
2019-01-03T01:51:10.526Z,39.40
2019-01-03T01:54:10.198Z,40.60
2019-01-03T01:57:09.875Z,40.40
2019-01-03T02:00:09.793Z,39.60
2019-01-03T02:03:09.275Z,38.70
2019-01-03T02:06:10.323Z,37.70
2019-01-03T02:09:17.724Z,37.50
2019-01-03T02:12:17.562Z,36.80
2019-01-03T02:15:17.056Z,37.30
2019-01-03T02:18:16.658Z,37.00
2019-01-03T02:21:16.991Z,36.50
2019-01-03T02:24:16.935Z,36.30
2019-01-03T02:27:23.524Z,36.10
2019-01-03T02:30:23.830Z,36.60
2019-01-03T02:33:24.292Z,37.20
2019-01-03T02:36:27.208Z,36.70
2019-01-03T02:39:27.398Z,36.80
2019-01-03T02:42:27.797Z,37.30
2019-01-03T02:45:28.197Z,38.20
2019-01-03T02:48:27.600Z,38.90
2019-01-03T02:51:27.291Z,39.60
2019-01-03T02:54:26.878Z,40.10
2019-01-03T03:27:29.866Z,39.80
2019-01-03T03:30:30.166Z,43.60
2019-01-03T03:33:30.572Z,43.90
2019-01-03T03:36:30.065Z,44.10
2019-01-03T03:39:28.820Z,44.40
2019-01-03T03:45:55.236Z,44.80
2019-01-03T03:49:01.109Z,45.10
2019-01-03T03:52:00.621Z,45.20
2019-01-03T03:55:00.231Z,45.40
2019-01-03T04:12:45.419Z,45.40
2019-01-03T05:39:12.658Z,44.20
2019-01-03T05:42:06.074Z,43.90
2019-01-03T05:48:04.647Z,44.20
2019-01-03T05:51:04.176Z,44.40
2019-01-03T05:54:07.316Z,44.40
2019-01-03T05:57:06.889Z,44.40
2019-01-03T06:03:10.510Z,44.20
2019-01-03T06:06:10.209Z,42.30
2019-01-03T06:09:06.205Z,40.10
2019-01-03T06:15:23.342Z,39.00
2019-01-03T06:18:22.825Z,39.20
2019-01-03T06:21:28.417Z,39.20
2019-01-03T06:24:24.777Z,39.90
2019-01-03T06:27:24.649Z,40.80
2019-01-03T06:30:24.181Z,41.50
2019-01-03T06:33:04.922Z,42.20
2019-01-03T06:36:07.608Z,43.00
2019-01-03T06:45:04.254Z,43.90
2019-01-03T06:48:07.513Z,45.40
2019-01-03T06:51:07.166Z,45.70
2019-01-03T06:54:14.554Z,45.20
2019-01-03T06:57:15.242Z,43.30
2019-01-03T07:00:14.705Z,42.10
2019-01-03T07:03:14.323Z,42.60
2019-01-03T07:06:13.795Z,41.90
2019-01-03T07:09:19.715Z,41.90
2019-01-03T07:12:20.071Z,42.30
2019-01-03T07:15:21.577Z,40.70
2019-01-03T07:18:28.916Z,39.80
2019-01-03T07:21:28.489Z,40.90
2019-01-03T07:24:28.208Z,41.60
2019-01-03T07:27:28.535Z,42.10
2019-01-03T07:30:33.759Z,42.00
2019-01-03T07:33:33.437Z,42.00
2019-01-03T07:39:41.546Z,42.20
2019-01-03T07:42:41.240Z,41.50
2019-01-03T07:45:40.882Z,40.80
2019-01-03T07:48:40.589Z,41.00
2019-01-03T07:51:43.190Z,41.20
2019-01-03T07:54:45.600Z,42.40
2019-01-03T07:57:45.430Z,41.30
2019-01-03T08:00:45.145Z,40.60
2019-01-03T08:03:45.137Z,40.50
2019-01-03T08:09:59.958Z,40.40
2019-01-03T08:13:00.113Z,40.00
2019-01-03T08:15:52.339Z,38.60
2019-01-03T08:18:52.098Z,38.50
2019-01-03T08:21:49.664Z,38.30
2019-01-03T08:24:49.990Z,39.60
2019-01-03T08:27:49.631Z,41.30
2019-01-03T08:30:56.901Z,42.50
2019-01-03T08:33:56.738Z,42.90
2019-01-03T08:36:57.187Z,43.50
2019-01-03T08:39:58.088Z,43.50
2019-01-03T08:43:05.515Z,43.60
2019-01-03T08:46:05.058Z,42.90
2019-01-03T08:49:07.867Z,43.00
2019-01-03T08:52:08.083Z,43.60
2019-01-03T09:01:19.128Z,43.80
2019-01-03T09:04:18.864Z,41.50
2019-01-03T09:07:18.415Z,41.10
2019-01-03T09:10:25.879Z,40.30
2019-01-03T09:16:40.612Z,40.80
2019-01-03T09:19:40.244Z,40.30
2019-01-03T09:22:40.513Z,40.50
2019-01-03T09:25:40.000Z,39.50
2019-01-03T09:28:40.222Z,40.80
2019-01-03T09:31:39.123Z,40.20
2019-01-03T09:34:38.947Z,39.80
2019-01-03T09:40:57.955Z,40.10
2019-01-03T09:43:57.468Z,41.50
2019-01-03T09:46:38.152Z,41.10
2019-01-03T09:49:19.251Z,41.40
2019-01-03T09:52:00.590Z,41.80
2019-01-03T09:54:41.399Z,42.30
2019-01-03T09:57:22.044Z,43.40
2019-01-03T10:00:03.124Z,42.30
2019-01-03T10:02:44.469Z,40.60
2019-01-03T10:05:25.143Z,38.90
2019-01-03T10:08:05.978Z,37.70
2019-01-03T10:10:45.386Z,38.80
2019-01-03T10:13:26.206Z,37.00
2019-01-03T10:16:07.249Z,35.80
2019-01-03T10:18:48.441Z,35.10
2019-01-03T10:21:29.487Z,34.30
2019-01-03T10:24:10.627Z,36.00
2019-01-03T10:26:51.450Z,36.10
2019-01-03T10:29:32.620Z,36.20
2019-01-03T10:32:14.184Z,35.80
2019-01-03T10:34:54.779Z,34.00
2019-01-03T10:37:36.236Z,35.50
2019-01-03T10:40:17.401Z,34.10
2019-01-03T10:42:57.877Z,33.40
2019-01-03T10:45:38.535Z,33.60
2019-01-03T10:48:19.498Z,32.80
2019-01-03T10:51:00.831Z,33.70
2019-01-03T10:53:41.521Z,32.50
2019-01-03T10:56:22.471Z,31.40
2019-01-03T10:59:03.176Z,30.60
2019-01-03T11:01:43.036Z,30.40
2019-01-03T11:04:23.547Z,31.50
2019-01-03T11:07:04.207Z,31.10
2019-01-03T11:09:44.781Z,30.50
2019-01-03T11:12:25.998Z,31.20
2019-01-03T11:15:07.262Z,32.30
2019-01-03T11:17:48.869Z,35.00
2019-01-03T11:20:29.980Z,38.90
2019-01-03T11:23:10.904Z,40.30
2019-01-03T11:25:51.875Z,41.30
2019-01-03T11:28:33.202Z,40.90
2019-01-03T11:31:14.495Z,40.90
2019-01-03T11:33:55.364Z,40.70
2019-01-03T11:36:36.790Z,40.90
2019-01-03T11:39:16.281Z,40.20
2019-01-03T11:42:04.826Z,39.70
2019-01-03T11:44:45.431Z,39.20
2019-01-03T11:47:26.638Z,39.50
2019-01-03T11:50:07.865Z,38.00
2019-01-03T11:52:48.505Z,37.10
2019-01-03T11:55:29.415Z,37.00
2019-01-03T11:58:11.702Z,37.00
2019-01-03T12:00:52.799Z,37.30
2019-01-03T12:03:33.431Z,36.10
2019-01-03T12:06:14.861Z,35.10
2019-01-03T12:08:56.119Z,33.60
2019-01-03T12:11:36.981Z,33.20
2019-01-03T12:14:18.301Z,32.10
2019-01-03T12:16:59.361Z,31.10
2019-01-03T12:19:40.457Z,31.20
2019-01-03T12:22:21.833Z,31.90
2019-01-03T12:25:01.752Z,32.10
2019-01-03T12:27:42.826Z,30.80
2019-01-03T12:30:23.542Z,31.10
2019-01-03T12:33:05.037Z,32.30
2019-01-03T12:35:46.327Z,31.90
2019-01-03T12:38:27.828Z,32.10
2019-01-03T12:41:08.552Z,31.60
2019-01-03T12:43:49.605Z,34.10
2019-01-03T12:46:30.210Z,33.90
2019-01-03T12:49:11.596Z,34.60
2019-01-03T12:51:52.224Z,33.80
2019-01-03T12:54:33.290Z,35.40
2019-01-03T12:57:14.715Z,34.30
2019-01-03T12:59:54.329Z,36.30
2019-01-03T13:02:42.737Z,38.30
2019-01-03T13:05:23.429Z,40.30
2019-01-03T13:08:04.088Z,40.30
2019-01-03T13:10:45.343Z,40.20
2019-01-03T13:13:25.872Z,40.20
2019-01-03T13:16:07.278Z,40.50
2019-01-03T13:18:48.739Z,41.20
2019-01-03T13:21:30.280Z,41.00
2019-01-03T13:24:11.541Z,40.90
2019-01-03T13:26:53.301Z,40.80
2019-01-03T13:29:34.782Z,41.60
2019-01-03T13:32:15.463Z,39.70
2019-01-03T13:34:55.194Z,38.80
2019-01-03T13:37:36.193Z,38.90
2019-01-03T13:40:17.418Z,40.00
2019-01-03T13:42:58.923Z,40.00
2019-01-03T13:45:39.873Z,40.00
2019-01-03T13:48:20.831Z,40.00
2019-01-03T13:51:01.459Z,41.20
2019-01-03T13:53:42.774Z,40.90
2019-01-03T13:56:24.078Z,40.80
2019-01-03T13:59:04.617Z,40.90
2019-01-03T14:01:45.265Z,41.60
2019-01-03T14:04:26.331Z,41.30
2019-01-03T14:07:07.708Z,41.70
2019-01-03T14:09:49.011Z,41.90
2019-01-03T14:12:30.182Z,41.80
2019-01-03T14:15:11.354Z,40.70
2019-01-03T14:17:52.518Z,40.30
2019-01-03T14:20:32.083Z,40.30
2019-01-03T14:26:26.115Z,41.30
2019-01-03T14:29:07.214Z,40.50
2019-01-03T14:31:47.945Z,40.30
2019-01-03T14:34:28.518Z,40.60
2019-01-03T14:37:09.060Z,41.20
2019-01-03T14:39:50.209Z,40.90
2019-01-03T14:42:30.793Z,40.60
2019-01-03T14:45:10.734Z,40.90
2019-01-03T14:47:51.927Z,41.60
2019-01-03T14:50:32.505Z,41.20
2019-01-03T14:53:13.187Z,41.10
2019-01-03T14:55:54.527Z,41.50
2019-01-03T14:58:35.815Z,41.40
2019-01-03T15:01:17.281Z,40.70
2019-01-03T15:03:58.718Z,40.50
2019-01-03T15:06:38.235Z,41.20
2019-01-03T15:09:18.917Z,41.90
2019-01-03T15:12:00.122Z,43.20
2019-01-03T15:23:35.841Z,42.70
2019-01-03T15:26:16.436Z,41.70
2019-01-03T15:28:57.575Z,41.30
2019-01-03T15:31:38.834Z,41.40
2019-01-03T15:34:20.015Z,41.80
2019-01-03T15:36:59.600Z,42.60
2019-01-03T15:39:40.929Z,41.90
2019-01-03T15:42:21.596Z,41.80
2019-01-03T15:45:02.849Z,41.80
2019-01-03T15:47:44.272Z,42.40
2019-01-03T15:50:24.234Z,42.60
2019-01-03T15:53:12.643Z,43.00
2019-01-03T15:55:53.296Z,43.20
2019-01-03T15:58:34.748Z,43.60
2019-01-03T16:01:16.259Z,44.10
2019-01-03T16:11:54.052Z,44.20
2019-01-03T16:14:34.702Z,45.30
2019-01-03T16:17:15.395Z,45.50
2019-01-03T16:19:56.772Z,46.10
2019-01-03T16:22:38.105Z,46.40
2019-01-03T16:25:18.691Z,46.70
2019-01-03T16:27:59.355Z,46.80
2019-01-03T16:30:40.087Z,46.90
2019-01-03T16:33:21.077Z,46.90
2019-01-03T16:36:00.546Z,47.10
2019-01-03T16:38:41.573Z,47.40
2019-01-03T16:41:22.210Z,47.40
2019-01-03T16:44:03.152Z,47.60
2019-01-03T16:46:43.685Z,47.80
2019-01-03T16:49:23.322Z,48.10
2019-01-03T16:52:04.751Z,48.20
2019-01-03T16:54:45.547Z,48.30
2019-01-03T16:57:26.234Z,48.40
2019-01-03T17:00:07.659Z,48.60
2019-01-03T17:02:48.466Z,48.70
2019-01-03T17:05:29.885Z,48.60
2019-01-03T17:08:10.640Z,48.80
2019-01-03T17:10:51.956Z,48.80
2019-01-03T17:13:33.301Z,49.00
2019-01-03T17:16:14.306Z,49.10
2019-01-03T17:18:55.482Z,49.10
2019-01-03T17:21:35.657Z,49.10
2019-01-03T17:24:24.210Z,49.30
2019-01-03T17:27:04.897Z,49.40
2019-01-03T17:29:46.147Z,49.50
2019-01-03T17:32:27.565Z,49.50
2019-01-03T17:35:08.796Z,49.70
2019-01-03T17:37:49.358Z,49.80
2019-01-03T17:40:30.725Z,49.80
2019-01-03T17:43:12.086Z,50.00
2019-01-03T17:45:52.935Z,50.10
2019-01-03T17:48:33.587Z,50.10
2019-01-03T17:51:14.676Z,50.30
2019-01-03T17:53:55.665Z,50.30
2019-01-03T17:56:36.963Z,50.20
2019-01-03T17:59:18.204Z,50.40
2019-01-03T18:01:59.465Z,50.50
2019-01-03T18:04:40.399Z,50.40
2019-01-03T18:07:19.866Z,50.50
2019-01-03T18:10:00.569Z,50.60
2019-01-03T18:12:41.886Z,50.60
2019-01-03T18:15:23.047Z,50.60
2019-01-03T18:18:03.757Z,50.70
2019-01-03T18:20:44.911Z,50.70
2019-01-03T18:23:24.679Z,50.80
2019-01-03T18:26:05.513Z,50.80
2019-01-03T18:28:46.814Z,50.90
2019-01-03T18:31:28.319Z,50.90
2019-01-03T18:34:09.151Z,51.00
2019-01-03T18:36:49.920Z,51.00
2019-01-03T18:39:30.735Z,51.10
2019-01-03T18:42:11.664Z,51.10
2019-01-03T18:44:52.264Z,51.10
2019-01-03T18:47:32.832Z,51.20
2019-01-03T18:50:18.870Z,51.20
2019-01-03T18:52:56.578Z,51.30
2019-01-03T18:55:37.959Z,51.30
2019-01-03T18:58:19.139Z,51.30
2019-01-03T19:00:59.885Z,51.30
2019-01-03T19:03:41.127Z,51.20
2019-01-03T19:06:20.577Z,51.20
2019-01-03T19:09:01.688Z,51.20
2019-01-03T19:11:43.262Z,51.20
2019-01-03T19:14:24.564Z,51.20
2019-01-03T19:17:05.897Z,51.20
2019-01-03T19:19:47.292Z,51.20
2019-01-03T19:22:28.783Z,51.20
2019-01-03T19:25:10.048Z,51.00
2019-01-03T19:27:49.884Z,51.00
2019-01-03T19:30:31.047Z,51.00
2019-01-03T19:33:12.562Z,50.80
2019-01-03T19:35:54.040Z,50.80
2019-01-03T19:38:35.486Z,50.80
2019-01-03T19:41:14.946Z,51.30
2019-01-03T19:47:03.703Z,50.90
2019-01-03T19:49:44.371Z,50.90
2019-01-03T19:52:25.937Z,51.00
2019-01-03T19:55:07.575Z,51.00
2019-01-03T19:57:47.097Z,51.00
2019-01-03T20:03:35.999Z,51.00
2019-01-03T20:06:16.714Z,50.90
2019-01-03T20:08:57.626Z,50.80
2019-01-03T20:11:38.881Z,51.00
2019-01-03T20:14:19.994Z,50.80
2019-01-03T20:17:00.825Z,50.80
2019-01-03T20:19:42.148Z,50.90
2019-01-03T20:22:23.582Z,50.90
2019-01-03T20:25:04.574Z,51.10
2019-01-03T20:27:46.049Z,51.10
2019-01-03T20:30:27.443Z,51.30
2019-01-03T20:33:08.595Z,51.30
2019-01-03T20:35:48.196Z,51.50
2019-01-03T20:38:36.658Z,51.30
2019-01-03T20:41:17.526Z,51.80
2019-01-03T20:43:58.378Z,51.10
2019-01-03T20:46:38.968Z,51.20
2019-01-03T20:49:19.688Z,51.30
2019-01-03T20:52:00.701Z,51.20
2019-01-03T20:54:42.255Z,51.30
2019-01-03T20:57:23.722Z,51.30
2019-01-03T21:00:05.241Z,51.30
2019-01-03T21:02:46.500Z,51.30
2019-01-03T21:05:27.644Z,51.20
2019-01-03T21:08:08.950Z,51.30
2019-01-03T21:10:50.021Z,51.40
2019-01-03T21:13:30.829Z,51.40
2019-01-03T21:16:11.895Z,51.40
2019-01-03T21:18:53.312Z,51.40
2019-01-03T21:21:34.794Z,51.50
2019-01-03T21:24:15.551Z,51.50
2019-01-03T21:26:56.096Z,51.50
2019-01-03T21:29:35.558Z,51.60
2019-01-03T21:35:23.747Z,51.80
2019-01-03T21:38:04.364Z,51.80
2019-01-03T21:40:45.620Z,51.80
2019-01-03T21:43:26.302Z,51.90
2019-01-03T21:46:07.698Z,52.00
2019-01-03T21:48:53.130Z,52.20
2019-01-03T21:51:31.416Z,52.20
2019-01-03T21:54:12.731Z,52.20
2019-01-03T21:56:53.433Z,52.30
2019-01-03T21:59:34.900Z,52.40
2019-01-03T22:02:16.091Z,52.40
2019-01-03T22:04:55.836Z,52.40
2019-01-03T22:07:36.757Z,52.40
2019-01-03T22:10:17.872Z,52.30
2019-01-03T22:12:59.410Z,52.30
2019-01-03T22:15:40.111Z,52.30
2019-01-03T22:18:21.530Z,52.30
2019-01-03T22:21:02.139Z,52.30
2019-01-03T22:23:43.371Z,52.40
2019-01-03T22:26:24.761Z,52.50
2019-01-03T22:29:06.280Z,52.50
2019-01-03T22:31:47.047Z,52.50
2019-01-03T22:34:28.212Z,52.60
2019-01-03T22:37:09.409Z,52.70
2019-01-03T22:39:50.037Z,52.70
2019-01-03T22:42:31.152Z,52.70
2019-01-03T22:45:12.525Z,52.70
2019-01-03T22:47:53.993Z,52.80
2019-01-03T22:50:35.151Z,52.90
2019-01-03T22:53:16.256Z,53.00
2019-01-03T22:55:57.544Z,53.00
2019-01-03T22:58:39.197Z,53.00
2019-01-03T23:01:20.559Z,53.00
2019-01-03T23:04:01.877Z,53.00
2019-01-03T23:06:43.300Z,53.00
2019-01-03T23:09:24.535Z,53.00
2019-01-03T23:12:05.965Z,53.10
2019-01-03T23:14:45.923Z,53.10
2019-01-03T23:17:26.888Z,52.90
2019-01-03T23:20:08.335Z,53.00
2019-01-03T23:22:49.207Z,53.20
2019-01-03T23:25:30.678Z,52.90
2019-01-03T23:28:12.063Z,52.90
2019-01-03T23:30:53.517Z,52.90
2019-01-03T23:33:34.565Z,52.90
2019-01-03T23:36:15.216Z,52.90
2019-01-03T23:38:56.477Z,52.90
2019-01-03T23:41:37.983Z,52.90
2019-01-03T23:44:18.582Z,52.90
2019-01-03T23:46:58.103Z,52.90
2019-01-03T23:49:39.553Z,52.90
2019-01-03T23:52:20.417Z,52.90
2019-01-03T23:54:59.901Z,52.90
